Terminal Aerodrome Forecast
Issued by NWS Greer, SC

Home | Current Version | Previous Version | Text Only | Print | Product List | Glossary On
Versions: 1 2 3 4 5 6 7 8 9 10 11 12 13 14
525
FTUS42 KGSP 102330
TAFGSP
TAF
KGSP 102330Z 1100/1124 15003KT P6SM SCT250
     FM111400 07005KT P6SM SCT050 BKN250
     FM112100 05006KT P6SM BKN030=

USA.gov is the U.S. government's official web portal to all federal, state and local government web resources and services.